ZSPDVTSP

Guest
Details From ZSPD - Pudong
To VTSP - Phuket Intl
Flight Number -
Tags Generated
Created
Modified
Stats Distance 1,910 nm / 3,537 km
Max Altitude 0 ft / 0 m
Waypoints 4
Social Downloads 4
Likes 0
Share VATSIM

Download

Looking for another format? Having issues loading an existing format? Contact us
Advertisement - Login to hide

Notes

Generated

Route

ZSPD BH PUT VTSP

ID Type Via Altitude Latitude Longitude Leg Dist Tot Dist Heading (true) Name
O ZSPD APT - 0 ft / 0 m 31.15901˚ 121.81167˚ - 0 nm - -
BH NDB - 0 ft / 0 m 23.07000˚ 112.48667˚ 695 nm 695 nm 228° / 224° GAOYAO NDB
PUT VOR - 0 ft / 0 m 8.11523˚ 98.30630˚ 1214 nm 1909 nm 225° / 221° PHUKET VOR-DME
O VTSP APT - 0 ft / 0 m 8.11189˚ 98.30327˚ 0 nm 1910 nm 222° / 222° -

Altitude Profile

Advertisement - Login to hide

Weather


0- 5 10 15 20 25 30 35+ Temperature / ° C

Clouds and Precipitation
Forecast for 2017-12-17 06:00 UTC. Updated 2 hours ago

Ground ~20,000 ft ~40,000 ft Winds

ZSPD

Details ICAO ZSPD (PVG)
Name PUDONG
Region China
Timezone Asia/Shanghai (UTC+8.0)
Stats Elevation 13 ft / 4 m (AMSL)
Location 31.143427° 121.805092°
Runways 2
Magnetic Variation 5.979° W

METAR

ZSPD 170630Z 34005MPS 310V020 CAVOK 06/M09 Q1034 NOSIG

Decode

TAF

Not found

Departure Runways

ID Width Length Bearing (true) Bearing (mag) Surface Threshold Offset Overrun Length
16 197 ft / 60 m 12,500 ft / 3,810 m 162.09° 168.07° Concrete 0 ft / 0 m 395 ft / 120 m
17 197 ft / 60 m 13,155 ft / 4,010 m 162.09° 168.07° Concrete 0 ft / 0 m 196 ft / 60 m
34 197 ft / 60 m 12,500 ft / 3,810 m 342.10° 348.08° Concrete 0 ft / 0 m 395 ft / 120 m
35 197 ft / 60 m 13,155 ft / 4,010 m 342.10° 348.08° Concrete 0 ft / 0 m 196 ft / 60 m

VTSP

Details ICAO VTSP (HKT)
Name Phuket Intl
Region Thailand
Timezone Asia/Bangkok (UTC+7.0)
Stats Elevation 82 ft / 25 m (AMSL)
Location 8.113199° 98.316871°
Runways 1
Magnetic Variation 0.433° W

METAR

VTSP 170630Z 08010KT 010V120 9999 FEW018CB SCT020 SCT100 30/21 Q1012 NOSIG

Decode

TAF

TAF VTSP 170500Z 1706/1812 08008KT 9999 FEW020 BECMG 1706/1708 28010KT SCT020 TEMPO 1708/1612 VRB15G25KT 3000 TSRA FEW018CB SCT020 BKN100 BECMG 1714/1716 VRB02KT FEW020 BECMG 1800/1802 08008KT

Decode

Destination Runways

ID Width Length Bearing (true) Bearing (mag) Surface Threshold Offset Overrun Length
09 148 ft / 45 m 9,870 ft / 3,008 m 84.45° 84.88° Asphalt 0 ft / 0 m 197 ft / 60 m
27 148 ft / 45 m 9,870 ft / 3,008 m 264.46° 264.89° Asphalt 0 ft / 0 m 197 ft / 60 m

Approach Navaids

Runway Type Ident Frequency Range Bearing (true) Bearing (mag) Slope Elevation
27 Localiser IPKT 109.90 MHz 18 nm / 33 km 263.45° 263.89° - 19 ft / 6 m (AMSL)
27 Glidescope IPKT 109.90 MHz 10 nm / 19 km 263.45° 263.89° 3.20° 82 ft / 25 m (AMSL)
27 DME IPKT 109.90 MHz 18 nm / 33 km - - - 82 ft / 25 m (AMSL)

Popular Alternatives